No particular awareness of the weather is required.    There are no Weather-warnings


Meteo18 Weather Cam more information Meteo18 Weather Cam


Thunder radar more information blitzortung!


Rain radar more information rain snow radar


Visit our other weather sites:

Template documentation
and downloads

And another site



Weather Underground History page Text

Daily Summary for February 22, 2017 Units:  Both    English   Metric
« Previous Day
Next Day »
Daily Weekly Monthly Yearly Custom
  High: Low: Average:
Temperature: 49.6 °F /  9.8 °C 46 °F /  7.8 °C 47.8 °F /  8.8 °C
Dew Point: 47.1 °F /  8.4 °C 43.2 °F /  6.2 °C 44.6 °F /  7 °C
Humidity: 95 % 83 % 89 %
Wind Speed: 12 mph /  19.3 km/h - 5.8 mph /  9.3 km/h
Wind Gust: 20 mph /  32.2 km/h - -
Wind:- - SW
Pressure: 30.2 in /  1023.2 hPa 30.1 in /  1017.8 hPa -
Precipitation: 0 in /  0.0 mm    
Historical Graphs
 
 
Tabular Data for February 22, 2017
Time Temperature Dew Point Pressure Wind Wind Speed Wind Gust Humidity Rainfall Rate (Hourly)
00:02 48.7 °F /  9.3 °C 47.1 °F /  8.4 °C 30.2 in /  1023.2 hPa WSW 3 mph /  4.8 km/h 10 mph /  16.1 km/h 94 % 0 in /  0.0 mm
00:12 48.7 °F /  9.3 °C 47.1 °F /  8.4 °C 30.2 in /  1023.2 hPa WSW 2 mph /  3.2 km/h 10 mph /  16.1 km/h 94 % 0 in /  0.0 mm
00:17 48.7 °F /  9.3 °C 47.1 °F /  8.4 °C 30.2 in /  1023.2 hPa WSW 10 mph /  16.1 km/h 10 mph /  16.1 km/h 94 % 0 in /  0.0 mm
00:22 48.7 °F /  9.3 °C 47.1 °F /  8.4 °C 30.2 in /  1023.2 hPa West 4 mph /  6.4 km/h 10 mph /  16.1 km/h 94 % 0 in /  0.0 mm
00:27 48.7 °F /  9.3 °C 47.1 °F /  8.4 °C 30.2 in /  1023.2 hPa West 4 mph /  6.4 km/h 10 mph /  16.1 km/h 94 % 0 in /  0.0 mm
00:32 48.7 °F /  9.3 °C 47.1 °F /  8.4 °C 30.2 in /  1023.2 hPa SW 6 mph /  9.7 km/h 12 mph /  19.3 km/h 94 % 0 in /  0.0 mm
00:37 48.7 °F /  9.3 °C 46.8 °F /  8.2 °C 30.2 in /  1023.2 hPa WSW 6 mph /  9.7 km/h 12 mph /  19.3 km/h 93 % 0 in /  0.0 mm
00:42 48.7 °F /  9.3 °C 47.1 °F /  8.4 °C 30.2 in /  1023.2 hPa WSW 4 mph /  6.4 km/h 12 mph /  19.3 km/h 94 % 0 in /  0.0 mm
00:47 48.7 °F /  9.3 °C 47.1 °F /  8.4 °C 30.2 in /  1022.9 hPa SW 4 mph /  6.4 km/h 10 mph /  16.1 km/h 94 % 0 in /  0.0 mm
00:52 48.7 °F /  9.3 °C 47.1 °F /  8.4 °C 30.2 in /  1023.2 hPa SW 2 mph /  3.2 km/h 10 mph /  16.1 km/h 94 % 0 in /  0.0 mm
01:02 48.6 °F /  9.2 °C 46.9 °F /  8.3 °C 30.2 in /  1022.9 hPa West 3 mph /  4.8 km/h 7 mph /  11.3 km/h 94 % 0 in /  0.0 mm
01:07 48.6 °F /  9.2 °C 46.9 °F /  8.3 °C 30.2 in /  1022.9 hPa SW 6 mph /  9.7 km/h 8 mph /  12.9 km/h 94 % 0 in /  0.0 mm
01:12 48.6 °F /  9.2 °C 46.9 °F /  8.3 °C 30.2 in /  1022.9 hPa West 6 mph /  9.7 km/h 8 mph /  12.9 km/h 94 % 0 in /  0.0 mm
01:17 48.6 °F /  9.2 °C 46.6 °F /  8.1 °C 30.2 in /  1022.9 hPa WSW 7 mph /  11.3 km/h 11 mph /  17.7 km/h 93 % 0 in /  0.0 mm
01:22 48.6 °F /  9.2 °C 46.6 °F /  8.1 °C 30.2 in /  1022.9 hPa SW 5 mph /  8.0 km/h 11 mph /  17.7 km/h 93 % 0 in /  0.0 mm
01:27 48.4 °F /  9.1 °C 46.4 °F /  8.0 °C 30.2 in /  1022.9 hPa WSW 6 mph /  9.7 km/h 10 mph /  16.1 km/h 93 % 0 in /  0.0 mm
01:32 48.4 °F /  9.1 °C 46.4 °F /  8.0 °C 30.2 in /  1022.9 hPa SW 3 mph /  4.8 km/h 10 mph /  16.1 km/h 93 % 0 in /  0.0 mm
01:37 48.4 °F /  9.1 °C 46.4 °F /  8.0 °C 30.2 in /  1022.9 hPa SW 4 mph /  6.4 km/h 10 mph /  16.1 km/h 93 % 0 in /  0.0 mm
01:42 48.4 °F /  9.1 °C 46.4 °F /  8.0 °C 30.2 in /  1022.9 hPa WSW 6 mph /  9.7 km/h 10 mph /  16.1 km/h 93 % 0 in /  0.0 mm
01:47 48.4 °F /  9.1 °C 46.4 °F /  8.0 °C 30.2 in /  1022.9 hPa SW 7 mph /  11.3 km/h 9 mph /  14.5 km/h 93 % 0 in /  0.0 mm
01:52 48.2 °F /  9.0 °C 46.2 °F /  7.9 °C 30.2 in /  1022.6 hPa WSW 4 mph /  6.4 km/h 9 mph /  14.5 km/h 93 % 0 in /  0.0 mm
01:57 48.2 °F /  9.0 °C 46.2 °F /  7.9 °C 30.2 in /  1022.6 hPa SW 5 mph /  8.0 km/h 10 mph /  16.1 km/h 93 % 0 in /  0.0 mm
02:02 48 °F /  8.9 °C 46.4 °F /  8.0 °C 30.2 in /  1022.6 hPa SW 4 mph /  6.4 km/h 10 mph /  16.1 km/h 94 % 0 in /  0.0 mm
02:07 48 °F /  8.9 °C 46.4 °F /  8.0 °C 30.2 in /  1022.2 hPa SW 5 mph /  8.0 km/h 10 mph /  16.1 km/h 94 % 0 in /  0.0 mm
02:12 48 °F /  8.9 °C 46.4 °F /  8.0 °C 30.2 in /  1022.6 hPa SW 4 mph /  6.4 km/h 10 mph /  16.1 km/h 94 % 0 in /  0.0 mm
02:17 47.8 °F /  8.8 °C 46.2 °F /  7.9 °C 30.2 in /  1022.2 hPa WSW 8 mph /  12.9 km/h 10 mph /  16.1 km/h 94 % 0 in /  0.0 mm
02:22 47.8 °F /  8.8 °C 46.2 °F /  7.9 °C 30.2 in /  1022.2 hPa SW 8 mph /  12.9 km/h 10 mph /  16.1 km/h 94 % 0 in /  0.0 mm
02:27 47.8 °F /  8.8 °C 46.2 °F /  7.9 °C 30.2 in /  1022.2 hPa SW 8 mph /  12.9 km/h 10 mph /  16.1 km/h 94 % 0 in /  0.0 mm
02:32 47.8 °F /  8.8 °C 46.2 °F /  7.9 °C 30.2 in /  1022.2 hPa SW 3 mph /  4.8 km/h 10 mph /  16.1 km/h 94 % 0 in /  0.0 mm
02:42 47.7 °F /  8.7 °C 46.2 °F /  7.9 °C 30.2 in /  1022.2 hPa SW 7 mph /  11.3 km/h 10 mph /  16.1 km/h 95 % 0 in /  0.0 mm
02:47 47.7 °F /  8.7 °C 46 °F /  7.8 °C 30.2 in /  1022.2 hPa SSW 3 mph /  4.8 km/h 11 mph /  17.7 km/h 94 % 0 in /  0.0 mm
02:52 47.7 °F /  8.7 °C 46.2 °F /  7.9 °C 30.2 in /  1022.2 hPa SW 3 mph /  4.8 km/h 11 mph /  17.7 km/h 95 % 0 in /  0.0 mm
02:57 47.7 °F /  8.7 °C 46 °F /  7.8 °C 30.2 in /  1022.2 hPa WSW 1 mph /  1.6 km/h 10 mph /  16.1 km/h 94 % 0 in /  0.0 mm
03:02 47.7 °F /  8.7 °C 46 °F /  7.8 °C 30.2 in /  1022.2 hPa West 6 mph /  9.7 km/h 10 mph /  16.1 km/h 94 % 0 in /  0.0 mm
03:07 47.7 °F /  8.7 °C 46 °F /  7.8 °C 30.2 in /  1022.2 hPa SW 2 mph /  3.2 km/h 10 mph /  16.1 km/h 94 % 0 in /  0.0 mm
03:12 47.7 °F /  8.7 °C 46 °F /  7.8 °C 30.2 in /  1022.2 hPa WSW 6 mph /  9.7 km/h 10 mph /  16.1 km/h 94 % 0 in /  0.0 mm
03:17 47.7 °F /  8.7 °C 46 °F /  7.8 °C 30.2 in /  1022.2 hPa SW 7 mph /  11.3 km/h 10 mph /  16.1 km/h 94 % 0 in /  0.0 mm
03:22 47.7 °F /  8.7 °C 46 °F /  7.8 °C 30.2 in /  1021.9 hPa WSW 7 mph /  11.3 km/h 10 mph /  16.1 km/h 94 % 0 in /  0.0 mm
03:27 47.7 °F /  8.7 °C 46 °F /  7.8 °C 30.2 in /  1021.9 hPa SW 6 mph /  9.7 km/h 13 mph /  20.9 km/h 94 % 0 in /  0.0 mm
03:32 47.7 °F /  8.7 °C 46 °F /  7.8 °C 30.2 in /  1021.9 hPa WSW 5 mph /  8.0 km/h 13 mph /  20.9 km/h 94 % 0 in /  0.0 mm
03:37 47.7 °F /  8.7 °C 46 °F /  7.8 °C 30.2 in /  1021.9 hPa SW 3 mph /  4.8 km/h 13 mph /  20.9 km/h 94 % 0 in /  0.0 mm
03:42 47.5 °F /  8.6 °C 45.5 °F /  7.5 °C 30.2 in /  1021.9 hPa WSW 4 mph /  6.4 km/h 13 mph /  20.9 km/h 93 % 0 in /  0.0 mm
03:47 47.5 °F /  8.6 °C 45.5 °F /  7.5 °C 30.2 in /  1021.9 hPa West 7 mph /  11.3 km/h 11 mph /  17.7 km/h 93 % 0 in /  0.0 mm
03:52 47.5 °F /  8.6 °C 45.5 °F /  7.5 °C 30.2 in /  1021.9 hPa WSW 5 mph /  8.0 km/h 11 mph /  17.7 km/h 93 % 0 in /  0.0 mm
03:57 47.5 °F /  8.6 °C 45.5 °F /  7.5 °C 30.2 in /  1021.6 hPa West 7 mph /  11.3 km/h 10 mph /  16.1 km/h 93 % 0 in /  0.0 mm
04:02 47.5 °F /  8.6 °C 45.3 °F /  7.4 °C 30.2 in /  1021.6 hPa WSW 7 mph /  11.3 km/h 10 mph /  16.1 km/h 92 % 0 in /  0.0 mm
04:07 47.5 °F /  8.6 °C 45 °F /  7.2 °C 30.2 in /  1021.9 hPa WSW 11 mph /  17.7 km/h 14 mph /  22.5 km/h 91 % 0 in /  0.0 mm
04:12 47.5 °F /  8.6 °C 45 °F /  7.2 °C 30.2 in /  1021.9 hPa WSW 6 mph /  9.7 km/h 14 mph /  22.5 km/h 91 % 0 in /  0.0 mm
04:17 47.3 °F /  8.5 °C 44.6 °F /  7.0 °C 30.2 in /  1021.9 hPa South 4 mph /  6.4 km/h 14 mph /  22.5 km/h 90 % 0 in /  0.0 mm
04:22 47.3 °F /  8.5 °C 44.2 °F /  6.8 °C 30.2 in /  1021.9 hPa WSW 7 mph /  11.3 km/h 14 mph /  22.5 km/h 89 % 0 in /  0.0 mm
04:27 47.3 °F /  8.5 °C 44.2 °F /  6.8 °C 30.2 in /  1021.9 hPa SW 5 mph /  8.0 km/h 12 mph /  19.3 km/h 89 % 0 in /  0.0 mm
04:32 47.3 °F /  8.5 °C 44.2 °F /  6.8 °C 30.2 in /  1021.9 hPa West 10 mph /  16.1 km/h 12 mph /  19.3 km/h 89 % 0 in /  0.0 mm
04:37 47.3 °F /  8.5 °C 43.9 °F /  6.6 °C 30.2 in /  1021.9 hPa SW 8 mph /  12.9 km/h 13 mph /  20.9 km/h 88 % 0 in /  0.0 mm
04:42 47.5 °F /  8.6 °C 43.9 °F /  6.6 °C 30.2 in /  1021.9 hPa SW 6 mph /  9.7 km/h 13 mph /  20.9 km/h 87 % 0 in /  0.0 mm
04:47 47.3 °F /  8.5 °C 43.9 °F /  6.6 °C 30.2 in /  1021.9 hPa WNW 5 mph /  8.0 km/h 16 mph /  25.7 km/h 88 % 0 in /  0.0 mm
04:52 47.3 °F /  8.5 °C 43.7 °F /  6.5 °C 30.2 in /  1021.9 hPa SW 5 mph /  8.0 km/h 16 mph /  25.7 km/h 87 % 0 in /  0.0 mm
04:57 47.3 °F /  8.5 °C 43.9 °F /  6.6 °C 30.2 in /  1021.9 hPa SW 6 mph /  9.7 km/h 16 mph /  25.7 km/h 88 % 0 in /  0.0 mm
05:02 47.3 °F /  8.5 °C 44.2 °F /  6.8 °C 30.2 in /  1021.9 hPa WSW 4 mph /  6.4 km/h 16 mph /  25.7 km/h 89 % 0 in /  0.0 mm
05:12 47.1 °F /  8.4 °C 44.4 °F /  6.9 °C 30.2 in /  1021.9 hPa SSW 3 mph /  4.8 km/h 9 mph /  14.5 km/h 90 % 0 in /  0.0 mm
05:17 46.9 °F /  8.3 °C 44.4 °F /  6.9 °C 30.2 in /  1021.9 hPa South 3 mph /  4.8 km/h 9 mph /  14.5 km/h 91 % 0 in /  0.0 mm
05:22 46.9 °F /  8.3 °C 44.4 °F /  6.9 °C 30.2 in /  1021.9 hPa SW 7 mph /  11.3 km/h 9 mph /  14.5 km/h 91 % 0 in /  0.0 mm
05:32 46.8 °F /  8.2 °C 44.6 °F /  7.0 °C 30.2 in /  1021.9 hPa WSW 5 mph /  8.0 km/h 11 mph /  17.7 km/h 92 % 0 in /  0.0 mm
05:42 46.8 °F /  8.2 °C 44.6 °F /  7.0 °C 30.2 in /  1021.9 hPa SSW 4 mph /  6.4 km/h 12 mph /  19.3 km/h 92 % 0 in /  0.0 mm
05:52 46.6 °F /  8.1 °C 44.6 °F /  7.0 °C 30.2 in /  1021.9 hPa WSW 5 mph /  8.0 km/h 12 mph /  19.3 km/h 93 % 0 in /  0.0 mm
05:57 46.6 °F /  8.1 °C 44.6 °F /  7.0 °C 30.2 in /  1021.9 hPa West 3 mph /  4.8 km/h 9 mph /  14.5 km/h 93 % 0 in /  0.0 mm
06:02 46.6 °F /  8.1 °C 44.6 °F /  7.0 °C 30.2 in /  1021.9 hPa SW 4 mph /  6.4 km/h 9 mph /  14.5 km/h 93 % 0 in /  0.0 mm
06:12 46.4 °F /  8.0 °C 44.4 °F /  6.9 °C 30.2 in /  1021.6 hPa SW 7 mph /  11.3 km/h 10 mph /  16.1 km/h 93 % 0 in /  0.0 mm
06:17 46.4 °F /  8.0 °C 44.4 °F /  6.9 °C 30.2 in /  1021.6 hPa SSW 3 mph /  4.8 km/h 11 mph /  17.7 km/h 93 % 0 in /  0.0 mm
06:22 46.4 °F /  8.0 °C 44.4 °F /  6.9 °C 30.2 in /  1021.6 hPa WSW 4 mph /  6.4 km/h 11 mph /  17.7 km/h 93 % 0 in /  0.0 mm
06:32 46.4 °F /  8.0 °C 44.8 °F /  7.1 °C 30.2 in /  1021.6 hPa SSW 5 mph /  8.0 km/h 11 mph /  17.7 km/h 94 % 0 in /  0.0 mm
06:42 46.4 °F /  8.0 °C 44.8 °F /  7.1 °C 30.2 in /  1021.9 hPa SW 5 mph /  8.0 km/h 12 mph /  19.3 km/h 94 % 0 in /  0.0 mm
06:47 46.4 °F /  8.0 °C 44.8 °F /  7.1 °C 30.2 in /  1021.9 hPa SW 8 mph /  12.9 km/h 12 mph /  19.3 km/h 94 % 0 in /  0.0 mm
06:52 46.4 °F /  8.0 °C 44.8 °F /  7.1 °C 30.2 in /  1021.9 hPa West 7 mph /  11.3 km/h 12 mph /  19.3 km/h 94 % 0 in /  0.0 mm
06:57 46.4 °F /  8.0 °C 44.8 °F /  7.1 °C 30.2 in /  1021.9 hPa WSW 4 mph /  6.4 km/h 12 mph /  19.3 km/h 94 % 0 in /  0.0 mm
07:02 46.4 °F /  8.0 °C 44.8 °F /  7.1 °C 30.2 in /  1021.9 hPa West 6 mph /  9.7 km/h 12 mph /  19.3 km/h 94 % 0 in /  0.0 mm
07:12 46.2 °F /  7.9 °C 44.2 °F /  6.8 °C 30.2 in /  1021.9 hPa WSW 6 mph /  9.7 km/h 13 mph /  20.9 km/h 93 % 0 in /  0.0 mm
07:17 46.2 °F /  7.9 °C 44.2 °F /  6.8 °C 30.2 in /  1021.9 hPa WSW 9 mph /  14.5 km/h 13 mph /  20.9 km/h 93 % 0 in /  0.0 mm
07:22 46.2 °F /  7.9 °C 44.2 °F /  6.8 °C 30.2 in /  1021.9 hPa SW 7 mph /  11.3 km/h 13 mph /  20.9 km/h 93 % 0 in /  0.0 mm
07:27 46.2 °F /  7.9 °C 44.2 °F /  6.8 °C 30.2 in /  1021.9 hPa SW 7 mph /  11.3 km/h 11 mph /  17.7 km/h 93 % 0 in /  0.0 mm
07:32 46.2 °F /  7.9 °C 44.2 °F /  6.8 °C 30.2 in /  1021.9 hPa WSW 3 mph /  4.8 km/h 11 mph /  17.7 km/h 93 % 0 in /  0.0 mm
07:42 46.2 °F /  7.9 °C 44.2 °F /  6.8 °C 30.2 in /  1021.9 hPa West 3 mph /  4.8 km/h 11 mph /  17.7 km/h 93 % 0 in /  0.0 mm
07:47 46.2 °F /  7.9 °C 44.2 °F /  6.8 °C 30.2 in /  1022.2 hPa WSW 6 mph /  9.7 km/h 11 mph /  17.7 km/h 93 % 0 in /  0.0 mm
07:57 46.2 °F /  7.9 °C 44.2 °F /  6.8 °C 30.2 in /  1022.2 hPa SW 7 mph /  11.3 km/h 11 mph /  17.7 km/h 93 % 0 in /  0.0 mm
08:02 46 °F /  7.8 °C 44.1 °F /  6.7 °C 30.2 in /  1022.2 hPa SW 3 mph /  4.8 km/h 11 mph /  17.7 km/h 93 % 0 in /  0.0 mm
08:12 46 °F /  7.8 °C 44.1 °F /  6.7 °C 30.2 in /  1022.2 hPa SW 5 mph /  8.0 km/h 10 mph /  16.1 km/h 93 % 0 in /  0.0 mm
08:17 46 °F /  7.8 °C 44.1 °F /  6.7 °C 30.2 in /  1022.2 hPa WSW 5 mph /  8.0 km/h 9 mph /  14.5 km/h 93 % 0 in /  0.0 mm
08:22 46 °F /  7.8 °C 44.1 °F /  6.7 °C 30.2 in /  1022.2 hPa WSW 6 mph /  9.7 km/h 9 mph /  14.5 km/h 93 % 0 in /  0.0 mm
08:32 46 °F /  7.8 °C 44.1 °F /  6.7 °C 30.2 in /  1022.2 hPa WSW 6 mph /  9.7 km/h 9 mph /  14.5 km/h 93 % 0 in /  0.0 mm
08:42 46 °F /  7.8 °C 43.9 °F /  6.6 °C 30.2 in /  1022.6 hPa SW 5 mph /  8.0 km/h 9 mph /  14.5 km/h 92 % 0 in /  0.0 mm
08:52 46 °F /  7.8 °C 43.9 °F /  6.6 °C 30.2 in /  1022.2 hPa SW 5 mph /  8.0 km/h 8 mph /  12.9 km/h 92 % 0 in /  0.0 mm
09:02 46 °F /  7.8 °C 43.9 °F /  6.6 °C 30.2 in /  1022.6 hPa SW 4 mph /  6.4 km/h 10 mph /  16.1 km/h 92 % 0 in /  0.0 mm
09:12 46 °F /  7.8 °C 43.9 °F /  6.6 °C 30.2 in /  1022.6 hPa SW 8 mph /  12.9 km/h 13 mph /  20.9 km/h 92 % 0 in /  0.0 mm
09:17 46 °F /  7.8 °C 43.9 °F /  6.6 °C 30.2 in /  1022.6 hPa SSW 3 mph /  4.8 km/h 10 mph /  16.1 km/h 92 % 0 in /  0.0 mm
09:22 46 °F /  7.8 °C 43.9 °F /  6.6 °C 30.2 in /  1022.6 hPa WSW 3 mph /  4.8 km/h 10 mph /  16.1 km/h 92 % 0 in /  0.0 mm
09:32 46 °F /  7.8 °C 43.9 °F /  6.6 °C 30.2 in /  1022.6 hPa SW 6 mph /  9.7 km/h 9 mph /  14.5 km/h 92 % 0 in /  0.0 mm
09:42 46 °F /  7.8 °C 43.9 °F /  6.6 °C 30.2 in /  1022.6 hPa SW 3 mph /  4.8 km/h 10 mph /  16.1 km/h 92 % 0 in /  0.0 mm
09:52 46 °F /  7.8 °C 43.9 °F /  6.6 °C 30.2 in /  1022.6 hPa SW 2 mph /  3.2 km/h 10 mph /  16.1 km/h 92 % 0 in /  0.0 mm
09:57 46 °F /  7.8 °C 43.9 °F /  6.6 °C 30.2 in /  1022.6 hPa SW 4 mph /  6.4 km/h 8 mph /  12.9 km/h 92 % 0 in /  0.0 mm
10:02 46 °F /  7.8 °C 43.9 °F /  6.6 °C 30.2 in /  1022.6 hPa SSW 7 mph /  11.3 km/h 8 mph /  12.9 km/h 92 % 0 in /  0.0 mm
10:12 46.2 °F /  7.9 °C 44.1 °F /  6.7 °C 30.2 in /  1022.6 hPa SW 4 mph /  6.4 km/h 11 mph /  17.7 km/h 92 % 0 in /  0.0 mm
10:17 46.2 °F /  7.9 °C 44.1 °F /  6.7 °C 30.2 in /  1022.6 hPa SW 3 mph /  4.8 km/h 10 mph /  16.1 km/h 92 % 0 in /  0.0 mm
10:22 46.2 °F /  7.9 °C 44.1 °F /  6.7 °C 30.2 in /  1022.2 hPa WSW 3 mph /  4.8 km/h 10 mph /  16.1 km/h 92 % 0 in /  0.0 mm
10:32 46.2 °F /  7.9 °C 44.1 °F /  6.7 °C 30.2 in /  1022.6 hPa SW 3 mph /  4.8 km/h 10 mph /  16.1 km/h 92 % 0 in /  0.0 mm
10:42 46.2 °F /  7.9 °C 44.1 °F /  6.7 °C 30.2 in /  1022.6 hPa SW 4 mph /  6.4 km/h 10 mph /  16.1 km/h 92 % 0 in /  0.0 mm
10:47 46.2 °F /  7.9 °C 44.1 °F /  6.7 °C 30.2 in /  1022.6 hPa WSW 4 mph /  6.4 km/h 9 mph /  14.5 km/h 92 % 0 in /  0.0 mm
10:52 46.2 °F /  7.9 °C 44.1 °F /  6.7 °C 30.2 in /  1022.6 hPa SW 4 mph /  6.4 km/h 9 mph /  14.5 km/h 92 % 0 in /  0.0 mm
11:02 46.2 °F /  7.9 °C 44.1 °F /  6.7 °C 30.2 in /  1022.6 hPa SW 4 mph /  6.4 km/h 8 mph /  12.9 km/h 92 % 0 in /  0.0 mm
11:12 46.4 °F /  8.0 °C 44.2 °F /  6.8 °C 30.2 in /  1022.6 hPa SW 6 mph /  9.7 km/h 10 mph /  16.1 km/h 92 % 0 in /  0.0 mm
11:17 46.2 °F /  7.9 °C 44.1 °F /  6.7 °C 30.2 in /  1022.6 hPa WSW 4 mph /  6.4 km/h 10 mph /  16.1 km/h 92 % 0 in /  0.0 mm
11:22 46.2 °F /  7.9 °C 44.2 °F /  6.8 °C 30.2 in /  1022.6 hPa WSW 5 mph /  8.0 km/h 10 mph /  16.1 km/h 93 % 0 in /  0.0 mm
11:32 46.4 °F /  8.0 °C 44.4 °F /  6.9 °C 30.2 in /  1022.2 hPa WSW 5 mph /  8.0 km/h 9 mph /  14.5 km/h 93 % 0 in /  0.0 mm
11:37 46.4 °F /  8.0 °C 44.4 °F /  6.9 °C 30.2 in /  1022.2 hPa WSW 3 mph /  4.8 km/h 8 mph /  12.9 km/h 93 % 0 in /  0.0 mm
11:42 46.4 °F /  8.0 °C 44.4 °F /  6.9 °C 30.2 in /  1022.6 hPa West 2 mph /  3.2 km/h 8 mph /  12.9 km/h 93 % 0 in /  0.0 mm
11:47 46.6 °F /  8.1 °C 44.6 °F /  7.0 °C 30.2 in /  1022.2 hPa SW 6 mph /  9.7 km/h 9 mph /  14.5 km/h 93 % 0 in /  0.0 mm
11:52 46.6 °F /  8.1 °C 44.4 °F /  6.9 °C 30.2 in /  1022.6 hPa West 5 mph /  8.0 km/h 9 mph /  14.5 km/h 92 % 0 in /  0.0 mm
11:57 46.6 °F /  8.1 °C 44.4 °F /  6.9 °C 30.2 in /  1022.2 hPa SW 7 mph /  11.3 km/h 11 mph /  17.7 km/h 92 % 0 in /  0.0 mm
12:02 46.8 °F /  8.2 °C 44.6 °F /  7.0 °C 30.2 in /  1022.2 hPa WSW 7 mph /  11.3 km/h 11 mph /  17.7 km/h 92 % 0 in /  0.0 mm
12:12 46.8 °F /  8.2 °C 44.6 °F /  7.0 °C 30.2 in /  1022.2 hPa WSW 5 mph /  8.0 km/h 12 mph /  19.3 km/h 92 % 0 in /  0.0 mm
12:17 46.9 °F /  8.3 °C 44.4 °F /  6.9 °C 30.2 in /  1022.2 hPa WSW 6 mph /  9.7 km/h 12 mph /  19.3 km/h 91 % 0 in /  0.0 mm
12:22 46.9 °F /  8.3 °C 44.4 °F /  6.9 °C 30.2 in /  1022.2 hPa SW 7 mph /  11.3 km/h 12 mph /  19.3 km/h 91 % 0 in /  0.0 mm
12:27 46.9 °F /  8.3 °C 44.4 °F /  6.9 °C 30.2 in /  1022.2 hPa WSW 3 mph /  4.8 km/h 12 mph /  19.3 km/h 91 % 0 in /  0.0 mm
12:32 47.1 °F /  8.4 °C 44.6 °F /  7.0 °C 30.2 in /  1022.2 hPa WSW 7 mph /  11.3 km/h 12 mph /  19.3 km/h 91 % 0 in /  0.0 mm
12:37 47.1 °F /  8.4 °C 44.4 °F /  6.9 °C 30.2 in /  1022.2 hPa SW 6 mph /  9.7 km/h 12 mph /  19.3 km/h 90 % 0 in /  0.0 mm
12:42 47.3 °F /  8.5 °C 44.8 °F /  7.1 °C 30.2 in /  1022.2 hPa SSW 7 mph /  11.3 km/h 12 mph /  19.3 km/h 91 % 0 in /  0.0 mm
12:47 47.3 °F /  8.5 °C 44.6 °F /  7.0 °C 30.2 in /  1022.2 hPa WSW 6 mph /  9.7 km/h 11 mph /  17.7 km/h 90 % 0 in /  0.0 mm
12:52 47.3 °F /  8.5 °C 44.6 °F /  7.0 °C 30.2 in /  1022.2 hPa SW 5 mph /  8.0 km/h 11 mph /  17.7 km/h 90 % 0 in /  0.0 mm
12:57 47.3 °F /  8.5 °C 44.6 °F /  7.0 °C 30.2 in /  1022.2 hPa West 5 mph /  8.0 km/h 11 mph /  17.7 km/h 90 % 0 in /  0.0 mm
13:02 47.3 °F /  8.5 °C 44.6 °F /  7.0 °C 30.2 in /  1021.9 hPa West 5 mph /  8.0 km/h 11 mph /  17.7 km/h 90 % 0 in /  0.0 mm
13:07 47.5 °F /  8.6 °C 44.8 °F /  7.1 °C 30.2 in /  1021.9 hPa West 4 mph /  6.4 km/h 14 mph /  22.5 km/h 90 % 0 in /  0.0 mm
13:12 47.5 °F /  8.6 °C 44.8 °F /  7.1 °C 30.2 in /  1021.9 hPa WSW 6 mph /  9.7 km/h 14 mph /  22.5 km/h 90 % 0 in /  0.0 mm
13:17 47.7 °F /  8.7 °C 44.6 °F /  7.0 °C 30.2 in /  1021.6 hPa WSW 8 mph /  12.9 km/h 14 mph /  22.5 km/h 89 % 0 in /  0.0 mm
13:22 47.7 °F /  8.7 °C 44.6 °F /  7.0 °C 30.2 in /  1021.6 hPa WSW 8 mph /  12.9 km/h 14 mph /  22.5 km/h 89 % 0 in /  0.0 mm
13:27 47.7 °F /  8.7 °C 44.6 °F /  7.0 °C 30.2 in /  1021.6 hPa WSW 7 mph /  11.3 km/h 13 mph /  20.9 km/h 89 % 0 in /  0.0 mm
13:32 47.8 °F /  8.8 °C 44.8 °F /  7.1 °C 30.2 in /  1021.6 hPa WSW 6 mph /  9.7 km/h 13 mph /  20.9 km/h 89 % 0 in /  0.0 mm
13:37 48 °F /  8.9 °C 44.6 °F /  7.0 °C 30.2 in /  1021.6 hPa SW 4 mph /  6.4 km/h 17 mph /  27.4 km/h 88 % 0 in /  0.0 mm
13:42 48.4 °F /  9.1 °C 45 °F /  7.2 °C 30.2 in /  1021.6 hPa WSW 10 mph /  16.1 km/h 17 mph /  27.4 km/h 88 % 0 in /  0.0 mm
13:47 48.6 °F /  9.2 °C 44.8 °F /  7.1 °C 30.2 in /  1021.6 hPa SW 9 mph /  14.5 km/h 16 mph /  25.7 km/h 87 % 0 in /  0.0 mm
13:52 48.4 °F /  9.1 °C 44.8 °F /  7.1 °C 30.2 in /  1021.6 hPa SSW 9 mph /  14.5 km/h 16 mph /  25.7 km/h 87 % 0 in /  0.0 mm
13:57 48.4 °F /  9.1 °C 44.8 °F /  7.1 °C 30.2 in /  1021.6 hPa WSW 7 mph /  11.3 km/h 14 mph /  22.5 km/h 87 % 0 in /  0.0 mm
14:02 48.4 °F /  9.1 °C 44.8 °F /  7.1 °C 30.2 in /  1021.6 hPa SW 5 mph /  8.0 km/h 14 mph /  22.5 km/h 87 % 0 in /  0.0 mm
14:12 48.6 °F /  9.2 °C 44.8 °F /  7.1 °C 30.2 in /  1021.2 hPa West 6 mph /  9.7 km/h 17 mph /  27.4 km/h 87 % 0 in /  0.0 mm
14:17 48.7 °F /  9.3 °C 44.8 °F /  7.1 °C 30.2 in /  1021.2 hPa SW 3 mph /  4.8 km/h 15 mph /  24.1 km/h 86 % 0 in /  0.0 mm
14:22 48.7 °F /  9.3 °C 44.8 °F /  7.1 °C 30.2 in /  1021.2 hPa SW 5 mph /  8.0 km/h 15 mph /  24.1 km/h 86 % 0 in /  0.0 mm
14:32 48.6 °F /  9.2 °C 44.2 °F /  6.8 °C 30.2 in /  1021.2 hPa SW 12 mph /  19.3 km/h 15 mph /  24.1 km/h 85 % 0 in /  0.0 mm
14:42 48.7 °F /  9.3 °C 44.8 °F /  7.1 °C 30.2 in /  1020.9 hPa SSW 3 mph /  4.8 km/h 19 mph /  30.6 km/h 86 % 0 in /  0.0 mm
14:47 48.7 °F /  9.3 °C 44.8 °F /  7.1 °C 30.2 in /  1020.9 hPa SW 10 mph /  16.1 km/h 14 mph /  22.5 km/h 86 % 0 in /  0.0 mm
14:52 48.7 °F /  9.3 °C 44.4 °F /  6.9 °C 30.1 in /  1020.5 hPa West 9 mph /  14.5 km/h 14 mph /  22.5 km/h 85 % 0 in /  0.0 mm
15:02 48.9 °F /  9.4 °C 44.6 °F /  7.0 °C 30.1 in /  1020.5 hPa WSW 7 mph /  11.3 km/h 16 mph /  25.7 km/h 85 % 0 in /  0.0 mm
15:07 48.9 °F /  9.4 °C 44.6 °F /  7.0 °C 30.1 in /  1020.5 hPa West 10 mph /  16.1 km/h 15 mph /  24.1 km/h 85 % 0 in /  0.0 mm
15:12 49.1 °F /  9.5 °C 44.4 °F /  6.9 °C 30.1 in /  1020.5 hPa SW 9 mph /  14.5 km/h 15 mph /  24.1 km/h 84 % 0 in /  0.0 mm
15:17 49.3 °F /  9.6 °C 44.6 °F /  7.0 °C 30.1 in /  1020.5 hPa WSW 5 mph /  8.0 km/h 20 mph /  32.2 km/h 84 % 0 in /  0.0 mm
15:22 49.3 °F /  9.6 °C 44.6 °F /  7.0 °C 30.1 in /  1020.5 hPa WSW 8 mph /  12.9 km/h 20 mph /  32.2 km/h 84 % 0 in /  0.0 mm
15:27 49.5 °F /  9.7 °C 44.8 °F /  7.1 °C 30.1 in /  1020.5 hPa SW 8 mph /  12.9 km/h 20 mph /  32.2 km/h 84 % 0 in /  0.0 mm
15:32 49.5 °F /  9.7 °C 44.8 °F /  7.1 °C 30.1 in /  1020.5 hPa SW 10 mph /  16.1 km/h 20 mph /  32.2 km/h 84 % 0 in /  0.0 mm
15:37 49.5 °F /  9.7 °C 44.8 °F /  7.1 °C 30.1 in /  1020.2 hPa West 7 mph /  11.3 km/h 17 mph /  27.4 km/h 84 % 0 in /  0.0 mm
15:42 49.5 °F /  9.7 °C 44.8 °F /  7.1 °C 30.1 in /  1020.5 hPa SW 6 mph /  9.7 km/h 17 mph /  27.4 km/h 84 % 0 in /  0.0 mm
15:47 49.5 °F /  9.7 °C 44.8 °F /  7.1 °C 30.1 in /  1020.2 hPa WSW 12 mph /  19.3 km/h 19 mph /  30.6 km/h 84 % 0 in /  0.0 mm
15:52 49.5 °F /  9.7 °C 44.8 °F /  7.1 °C 30.1 in /  1020.2 hPa WSW 4 mph /  6.4 km/h 19 mph /  30.6 km/h 84 % 0 in /  0.0 mm
15:57 49.5 °F /  9.7 °C 44.8 °F /  7.1 °C 30.1 in /  1020.2 hPa SW 4 mph /  6.4 km/h 15 mph /  24.1 km/h 84 % 0 in /  0.0 mm
16:02 49.5 °F /  9.7 °C 44.8 °F /  7.1 °C 30.1 in /  1020.2 hPa WSW 6 mph /  9.7 km/h 15 mph /  24.1 km/h 84 % 0 in /  0.0 mm
16:07 49.5 °F /  9.7 °C 44.8 °F /  7.1 °C 30.1 in /  1020.2 hPa WSW 9 mph /  14.5 km/h 14 mph /  22.5 km/h 84 % 0 in /  0.0 mm
16:12 49.5 °F /  9.7 °C 44.8 °F /  7.1 °C 30.1 in /  1020.2 hPa SW 6 mph /  9.7 km/h 14 mph /  22.5 km/h 84 % 0 in /  0.0 mm
16:17 49.6 °F /  9.8 °C 44.8 °F /  7.1 °C 30.1 in /  1020.5 hPa SSW 3 mph /  4.8 km/h 15 mph /  24.1 km/h 83 % 0 in /  0.0 mm
16:22 49.6 °F /  9.8 °C 44.8 °F /  7.1 °C 30.1 in /  1020.2 hPa SSW 3 mph /  4.8 km/h 15 mph /  24.1 km/h 83 % 0 in /  0.0 mm
16:32 49.6 °F /  9.8 °C 44.8 °F /  7.1 °C 30.1 in /  1020.2 hPa WSW 6 mph /  9.7 km/h 15 mph /  24.1 km/h 83 % 0 in /  0.0 mm
16:37 49.5 °F /  9.7 °C 44.6 °F /  7.0 °C 30.1 in /  1020.2 hPa SW 8 mph /  12.9 km/h 15 mph /  24.1 km/h 83 % 0 in /  0.0 mm
16:42 49.5 °F /  9.7 °C 44.6 °F /  7.0 °C 30.1 in /  1020.2 hPa West 6 mph /  9.7 km/h 15 mph /  24.1 km/h 83 % 0 in /  0.0 mm
16:47 49.5 °F /  9.7 °C 44.6 °F /  7.0 °C 30.1 in /  1020.2 hPa West 10 mph /  16.1 km/h 14 mph /  22.5 km/h 83 % 0 in /  0.0 mm
16:52 49.5 °F /  9.7 °C 44.8 °F /  7.1 °C 30.1 in /  1019.9 hPa SSW 4 mph /  6.4 km/h 14 mph /  22.5 km/h 84 % 0 in /  0.0 mm
16:57 49.5 °F /  9.7 °C 44.6 °F /  7.0 °C 30.1 in /  1019.9 hPa West 3 mph /  4.8 km/h 15 mph /  24.1 km/h 83 % 0 in /  0.0 mm
17:02 49.5 °F /  9.7 °C 44.6 °F /  7.0 °C 30.1 in /  1019.9 hPa WSW 6 mph /  9.7 km/h 15 mph /  24.1 km/h 83 % 0 in /  0.0 mm
17:07 49.5 °F /  9.7 °C 44.8 °F /  7.1 °C 30.1 in /  1019.9 hPa SSW 4 mph /  6.4 km/h 12 mph /  19.3 km/h 84 % 0 in /  0.0 mm
17:12 49.5 °F /  9.7 °C 44.8 °F /  7.1 °C 30.1 in /  1019.9 hPa SW 3 mph /  4.8 km/h 12 mph /  19.3 km/h 84 % 0 in /  0.0 mm
17:17 49.3 °F /  9.6 °C 44.6 °F /  7.0 °C 30.1 in /  1019.9 hPa SW 3 mph /  4.8 km/h 12 mph /  19.3 km/h 84 % 0 in /  0.0 mm
17:22 49.3 °F /  9.6 °C 44.6 °F /  7.0 °C 30.1 in /  1019.9 hPa SW 7 mph /  11.3 km/h 12 mph /  19.3 km/h 84 % 0 in /  0.0 mm
17:27 49.3 °F /  9.6 °C 44.6 °F /  7.0 °C 30.1 in /  1019.9 hPa SW 10 mph /  16.1 km/h 13 mph /  20.9 km/h 84 % 0 in /  0.0 mm
17:32 49.3 °F /  9.6 °C 44.6 °F /  7.0 °C 30.1 in /  1019.9 hPa SW 11 mph /  17.7 km/h 13 mph /  20.9 km/h 84 % 0 in /  0.0 mm
17:37 49.3 °F /  9.6 °C 44.6 °F /  7.0 °C 30.1 in /  1019.5 hPa WSW 10 mph /  16.1 km/h 13 mph /  20.9 km/h 84 % 0 in /  0.0 mm
17:42 49.3 °F /  9.6 °C 44.6 °F /  7.0 °C 30.1 in /  1019.5 hPa SW 10 mph /  16.1 km/h 13 mph /  20.9 km/h 84 % 0 in /  0.0 mm
17:47 49.3 °F /  9.6 °C 44.6 °F /  7.0 °C 30.1 in /  1019.9 hPa SW 6 mph /  9.7 km/h 13 mph /  20.9 km/h 84 % 0 in /  0.0 mm
17:52 49.3 °F /  9.6 °C 44.6 °F /  7.0 °C 30.1 in /  1019.5 hPa WSW 6 mph /  9.7 km/h 13 mph /  20.9 km/h 84 % 0 in /  0.0 mm
17:57 49.1 °F /  9.5 °C 44.4 °F /  6.9 °C 30.1 in /  1019.9 hPa SW 6 mph /  9.7 km/h 14 mph /  22.5 km/h 84 % 0 in /  0.0 mm
18:02 49.1 °F /  9.5 °C 44.4 °F /  6.9 °C 30.1 in /  1019.9 hPa SW 4 mph /  6.4 km/h 14 mph /  22.5 km/h 84 % 0 in /  0.0 mm
18:07 49.1 °F /  9.5 °C 44.4 °F /  6.9 °C 30.1 in /  1019.9 hPa SW 6 mph /  9.7 km/h 15 mph /  24.1 km/h 84 % 0 in /  0.0 mm
18:12 48.9 °F /  9.4 °C 44.2 °F /  6.8 °C 30.1 in /  1019.9 hPa West 6 mph /  9.7 km/h 15 mph /  24.1 km/h 84 % 0 in /  0.0 mm
18:17 48.9 °F /  9.4 °C 44.2 °F /  6.8 °C 30.1 in /  1019.9 hPa West 4 mph /  6.4 km/h 15 mph /  24.1 km/h 84 % 0 in /  0.0 mm
18:22 48.9 °F /  9.4 °C 44.2 °F /  6.8 °C 30.1 in /  1019.9 hPa WSW 7 mph /  11.3 km/h 13 mph /  20.9 km/h 84 % 0 in /  0.0 mm
18:27 48.9 °F /  9.4 °C 44.2 °F /  6.8 °C 30.1 in /  1019.9 hPa SW 7 mph /  11.3 km/h 13 mph /  20.9 km/h 84 % 0 in /  0.0 mm
18:32 48.7 °F /  9.3 °C 44.1 °F /  6.7 °C 30.1 in /  1019.5 hPa SW 5 mph /  8.0 km/h 12 mph /  19.3 km/h 84 % 0 in /  0.0 mm
18:37 48.7 °F /  9.3 °C 44.1 °F /  6.7 °C 30.1 in /  1019.5 hPa SW 12 mph /  19.3 km/h 12 mph /  19.3 km/h 84 % 0 in /  0.0 mm
18:42 48.7 °F /  9.3 °C 44.1 °F /  6.7 °C 30.1 in /  1019.5 hPa SW 3 mph /  4.8 km/h 12 mph /  19.3 km/h 84 % 0 in /  0.0 mm
18:47 48.7 °F /  9.3 °C 44.1 °F /  6.7 °C 30.1 in /  1019.5 hPa SW 10 mph /  16.1 km/h 14 mph /  22.5 km/h 84 % 0 in /  0.0 mm
18:52 48.6 °F /  9.2 °C 43.9 °F /  6.6 °C 30.1 in /  1019.5 hPa SW 8 mph /  12.9 km/h 14 mph /  22.5 km/h 84 % 0 in /  0.0 mm
18:57 48.6 °F /  9.2 °C 43.9 °F /  6.6 °C 30.1 in /  1019.5 hPa SW 9 mph /  14.5 km/h 14 mph /  22.5 km/h 84 % 0 in /  0.0 mm
19:02 48.6 °F /  9.2 °C 43.9 °F /  6.6 °C 30.1 in /  1019.5 hPa SW 9 mph /  14.5 km/h 14 mph /  22.5 km/h 84 % 0 in /  0.0 mm
19:07 48.6 °F /  9.2 °C 43.9 °F /  6.6 °C 30.1 in /  1019.5 hPa WSW 10 mph /  16.1 km/h 13 mph /  20.9 km/h 84 % 0 in /  0.0 mm
19:12 48.6 °F /  9.2 °C 43.9 °F /  6.6 °C 30.1 in /  1019.5 hPa SW 8 mph /  12.9 km/h 13 mph /  20.9 km/h 84 % 0 in /  0.0 mm
19:17 48.6 °F /  9.2 °C 43.9 °F /  6.6 °C 30.1 in /  1019.5 hPa SW 5 mph /  8.0 km/h 14 mph /  22.5 km/h 84 % 0 in /  0.0 mm
19:22 48.4 °F /  9.1 °C 43.7 °F /  6.5 °C 30.1 in /  1019.5 hPa WSW 8 mph /  12.9 km/h 14 mph /  22.5 km/h 84 % 0 in /  0.0 mm
19:32 48.4 °F /  9.1 °C 43.7 °F /  6.5 °C 30.1 in /  1019.5 hPa South 6 mph /  9.7 km/h 13 mph /  20.9 km/h 84 % 0 in /  0.0 mm
19:37 48.4 °F /  9.1 °C 43.7 °F /  6.5 °C 30.1 in /  1019.5 hPa WSW 8 mph /  12.9 km/h 13 mph /  20.9 km/h 84 % 0 in /  0.0 mm
19:42 48.4 °F /  9.1 °C 43.7 °F /  6.5 °C 30.1 in /  1019.5 hPa SSW 7 mph /  11.3 km/h 13 mph /  20.9 km/h 84 % 0 in /  0.0 mm
19:47 48.4 °F /  9.1 °C 43.7 °F /  6.5 °C 30.1 in /  1019.5 hPa SW 5 mph /  8.0 km/h 13 mph /  20.9 km/h 84 % 0 in /  0.0 mm
19:57 48.4 °F /  9.1 °C 43.7 °F /  6.5 °C 30.1 in /  1019.5 hPa WSW 9 mph /  14.5 km/h 12 mph /  19.3 km/h 84 % 0 in /  0.0 mm
20:02 48.2 °F /  9.0 °C 43.9 °F /  6.6 °C 30.1 in /  1019.5 hPa SSW 4 mph /  6.4 km/h 12 mph /  19.3 km/h 85 % 0 in /  0.0 mm
20:12 48.2 °F /  9.0 °C 43.9 °F /  6.6 °C 30.1 in /  1019.5 hPa West 8 mph /  12.9 km/h 14 mph /  22.5 km/h 85 % 0 in /  0.0 mm
20:17 48 °F /  8.9 °C 43.7 °F /  6.5 °C 30.1 in /  1019.5 hPa WSW 8 mph /  12.9 km/h 12 mph /  19.3 km/h 85 % 0 in /  0.0 mm
20:22 48 °F /  8.9 °C 43.3 °F /  6.3 °C 30.1 in /  1019.5 hPa WSW 7 mph /  11.3 km/h 12 mph /  19.3 km/h 84 % 0 in /  0.0 mm
20:27 48 °F /  8.9 °C 43.3 °F /  6.3 °C 30.1 in /  1019.5 hPa SW 5 mph /  8.0 km/h 11 mph /  17.7 km/h 84 % 0 in /  0.0 mm
20:32 48 °F /  8.9 °C 43.3 °F /  6.3 °C 30.1 in /  1019.5 hPa WSW 5 mph /  8.0 km/h 11 mph /  17.7 km/h 84 % 0 in /  0.0 mm
20:37 48 °F /  8.9 °C 43.3 °F /  6.3 °C 30.1 in /  1019.5 hPa SW 2 mph /  3.2 km/h 13 mph /  20.9 km/h 84 % 0 in /  0.0 mm
20:42 48 °F /  8.9 °C 43.3 °F /  6.3 °C 30.1 in /  1019.5 hPa WSW 5 mph /  8.0 km/h 13 mph /  20.9 km/h 84 % 0 in /  0.0 mm
20:47 48 °F /  8.9 °C 43.3 °F /  6.3 °C 30.1 in /  1019.5 hPa SW 10 mph /  16.1 km/h 11 mph /  17.7 km/h 84 % 0 in /  0.0 mm
20:52 48 °F /  8.9 °C 43.3 °F /  6.3 °C 30.1 in /  1019.5 hPa SW 2 mph /  3.2 km/h 11 mph /  17.7 km/h 84 % 0 in /  0.0 mm
20:57 48 °F /  8.9 °C 43.7 °F /  6.5 °C 30.1 in /  1019.5 hPa SSW 6 mph /  9.7 km/h 11 mph /  17.7 km/h 85 % 0 in /  0.0 mm
21:02 48 °F /  8.9 °C 43.7 °F /  6.5 °C 30.1 in /  1019.5 hPa WSW 5 mph /  8.0 km/h 11 mph /  17.7 km/h 85 % 0 in /  0.0 mm
21:07 47.8 °F /  8.8 °C 43.5 °F /  6.4 °C 30.1 in /  1019.2 hPa SW 6 mph /  9.7 km/h 10 mph /  16.1 km/h 85 % 0 in /  0.0 mm
21:12 47.8 °F /  8.8 °C 43.5 °F /  6.4 °C 30.1 in /  1019.2 hPa SW 6 mph /  9.7 km/h 10 mph /  16.1 km/h 85 % 0 in /  0.0 mm
21:17 47.8 °F /  8.8 °C 43.5 °F /  6.4 °C 30.1 in /  1019.2 hPa SSW 4 mph /  6.4 km/h 12 mph /  19.3 km/h 85 % 0 in /  0.0 mm
21:22 47.8 °F /  8.8 °C 43.5 °F /  6.4 °C 30.1 in /  1019.2 hPa WSW 7 mph /  11.3 km/h 12 mph /  19.3 km/h 85 % 0 in /  0.0 mm
21:27 47.8 °F /  8.8 °C 43.5 °F /  6.4 °C 30.1 in /  1019.2 hPa WSW 6 mph /  9.7 km/h 12 mph /  19.3 km/h 85 % 0 in /  0.0 mm
21:32 47.8 °F /  8.8 °C 43.5 °F /  6.4 °C 30.1 in /  1019.2 hPa WSW 6 mph /  9.7 km/h 12 mph /  19.3 km/h 85 % 0 in /  0.0 mm
21:37 47.8 °F /  8.8 °C 43.2 °F /  6.2 °C 30.1 in /  1019.2 hPa West 6 mph /  9.7 km/h 13 mph /  20.9 km/h 84 % 0 in /  0.0 mm
21:42 47.8 °F /  8.8 °C 43.2 °F /  6.2 °C 30.1 in /  1019.2 hPa SW 8 mph /  12.9 km/h 13 mph /  20.9 km/h 84 % 0 in /  0.0 mm
21:47 47.8 °F /  8.8 °C 43.5 °F /  6.4 °C 30.1 in /  1019.2 hPa West 4 mph /  6.4 km/h 15 mph /  24.1 km/h 85 % 0 in /  0.0 mm
21:52 47.7 °F /  8.7 °C 43.3 °F /  6.3 °C 30.1 in /  1019.2 hPa SW 7 mph /  11.3 km/h 15 mph /  24.1 km/h 85 % 0 in /  0.0 mm
22:02 47.7 °F /  8.7 °C 43.7 °F /  6.5 °C 30.1 in /  1019.2 hPa WSW 10 mph /  16.1 km/h 11 mph /  17.7 km/h 86 % 0 in /  0.0 mm
22:07 47.7 °F /  8.7 °C 43.3 °F /  6.3 °C 30.1 in /  1018.8 hPa SW 2 mph /  3.2 km/h 12 mph /  19.3 km/h 85 % 0 in /  0.0 mm
22:12 47.7 °F /  8.7 °C 43.3 °F /  6.3 °C 30.1 in /  1018.8 hPa WSW 6 mph /  9.7 km/h 12 mph /  19.3 km/h 85 % 0 in /  0.0 mm
22:17 47.7 °F /  8.7 °C 43.7 °F /  6.5 °C 30.1 in /  1018.8 hPa WSW 5 mph /  8.0 km/h 14 mph /  22.5 km/h 86 % 0 in /  0.0 mm
22:22 47.7 °F /  8.7 °C 43.7 °F /  6.5 °C 30.1 in /  1018.8 hPa WSW 9 mph /  14.5 km/h 14 mph /  22.5 km/h 86 % 0 in /  0.0 mm
22:27 47.7 °F /  8.7 °C 43.7 °F /  6.5 °C 30.1 in /  1018.8 hPa SW 7 mph /  11.3 km/h 13 mph /  20.9 km/h 86 % 0 in /  0.0 mm
22:32 47.5 °F /  8.6 °C 43.5 °F /  6.4 °C 30.1 in /  1018.8 hPa WSW 8 mph /  12.9 km/h 13 mph /  20.9 km/h 86 % 0 in /  0.0 mm
22:37 47.5 °F /  8.6 °C 43.9 °F /  6.6 °C 30.1 in /  1018.5 hPa SW 3 mph /  4.8 km/h 11 mph /  17.7 km/h 87 % 0 in /  0.0 mm
22:42 47.5 °F /  8.6 °C 43.9 °F /  6.6 °C 30.1 in /  1018.5 hPa SW 7 mph /  11.3 km/h 11 mph /  17.7 km/h 87 % 0 in /  0.0 mm
22:47 47.5 °F /  8.6 °C 43.9 °F /  6.6 °C 30.1 in /  1018.5 hPa SW 5 mph /  8.0 km/h 12 mph /  19.3 km/h 87 % 0 in /  0.0 mm
22:52 47.5 °F /  8.6 °C 43.9 °F /  6.6 °C 30.1 in /  1018.5 hPa WSW 6 mph /  9.7 km/h 12 mph /  19.3 km/h 87 % 0 in /  0.0 mm
22:57 47.5 °F /  8.6 °C 43.9 °F /  6.6 °C 30.1 in /  1018.5 hPa SW 8 mph /  12.9 km/h 13 mph /  20.9 km/h 87 % 0 in /  0.0 mm
23:02 47.3 °F /  8.5 °C 43.7 °F /  6.5 °C 30.1 in /  1018.5 hPa SW 7 mph /  11.3 km/h 13 mph /  20.9 km/h 87 % 0 in /  0.0 mm
23:12 47.1 °F /  8.4 °C 43.7 °F /  6.5 °C 30.1 in /  1018.2 hPa SSW 5 mph /  8.0 km/h 13 mph /  20.9 km/h 88 % 0 in /  0.0 mm
23:17 47.1 °F /  8.4 °C 43.5 °F /  6.4 °C 30.1 in /  1018.2 hPa WSW 6 mph /  9.7 km/h 12 mph /  19.3 km/h 87 % 0 in /  0.0 mm
23:22 47.1 °F /  8.4 °C 43.5 °F /  6.4 °C 30.1 in /  1018.2 hPa SW 6 mph /  9.7 km/h 12 mph /  19.3 km/h 87 % 0 in /  0.0 mm
23:32 47.1 °F /  8.4 °C 43.5 °F /  6.4 °C 30.1 in /  1018.2 hPa SSW 2 mph /  3.2 km/h 12 mph /  19.3 km/h 87 % 0 in /  0.0 mm
23:37 47.1 °F /  8.4 °C 43.5 °F /  6.4 °C 30.1 in /  1018.2 hPa SSW 5 mph /  8.0 km/h 11 mph /  17.7 km/h 87 % 0 in /  0.0 mm
23:42 47.1 °F /  8.4 °C 43.7 °F /  6.5 °C 30.1 in /  1017.8 hPa SSE 3 mph /  4.8 km/h 11 mph /  17.7 km/h 88 % 0 in /  0.0 mm
23:47 46.9 °F /  8.3 °C 43.5 °F /  6.4 °C 30.1 in /  1017.8 hPa SW 4 mph /  6.4 km/h 9 mph /  14.5 km/h 88 % 0 in /  0.0 mm
23:52 47.1 °F /  8.4 °C 43.7 °F /  6.5 °C 30.1 in /  1017.8 hPa SW 5 mph /  8.0 km/h 9 mph /  14.5 km/h 88 % 0 in /  0.0 mm
Meteo18
Compliments of Weather Underground - 4 mb

Script developed by  Jim McMurry - jmcmurry@mwt.net Adapted for the template by  Wim van der Kuil - Leuven-Template.eu

You find our weather info also at:

European Weather Network

Weather Underground

Equipment we use:

Weather-station
Davis Vue

Weather-program
Meteohub

Weather-server
Raspberry PI 2 B+

Provider
1 and 1

Davis Vue

Meteohub

Raspberry PI 2 B+

1 and 1